Time;durP1;ratioP1;P1;durP2;ratioP2;P2;SDS_P1;SDS_P2;PMS_P1;PMS_P2;Temp;Humidity;BMP_temperature;BMP_pressure;BME280_temperature;BME280_humidity;BME280_pressure;Samples;Min_cycle;Max_cycle;Signal;HPM_P1;HPM_P2
2023/12/26 00:09:59;;;;;;;4.00;2.87;;;;;;;10.42;100.00;98793.34;31583840;28;20048;-81
2023/12/26 00:25:02;;;;;;;4.60;2.73;;;;;;;10.41;100.00;98818.94;31392908;28;20057;-87
2023/12/26 00:40:08;;;;;;;5.17;2.53;;;;;;;10.45;100.00;98829.66;31493651;28;20392;-84
2023/12/26 00:55:12;;;;;;;6.90;3.13;;;;;;;10.65;100.00;98897.88;31529613;28;20060;-86
2023/12/26 01:10:15;;;;;;;2.50;2.10;;;;;;;10.42;100.00;98944.50;31398945;28;20477;-85
2023/12/26 01:25:17;;;;;;;4.20;2.50;;;;;;;11.03;100.00;98935.53;31329022;28;20076;-84
2023/12/26 01:40:19;;;;;;;4.07;2.03;;;;;;;10.25;100.00;98952.09;31528272;28;20052;-84
2023/12/26 01:55:23;;;;;;;2.57;1.93;;;;;;;10.26;100.00;98997.00;31397977;28;20215;-83
2023/12/26 02:10:25;;;;;;;2.47;1.57;;;;;;;10.15;100.00;99018.31;31372913;28;20512;-84
2023/12/26 02:25:31;;;;;;;3.67;1.43;;;;;;;10.24;100.00;99029.25;31403325;28;20056;-83
2023/12/26 02:40:34;;;;;;;5.07;1.83;;;;;;;10.28;100.00;99038.03;31494224;28;20060;-78
2023/12/26 02:55:37;;;;;;;3.30;2.40;;;;;;;11.46;100.00;99066.97;31537147;28;20052;-79
2023/12/26 03:10:43;;;;;;;3.10;2.30;;;;;;;11.54;100.00;99138.84;31490046;28;20084;-80
2023/12/26 03:41:48;;;;;;;6.20;2.87;;;;;;;10.47;100.00;99134.63;31509465;28;20052;-81
2023/12/26 03:56:54;;;;;;;7.63;3.03;;;;;;;10.70;100.00;99186.94;31588465;28;20048;-82
2023/12/26 04:11:56;;;;;;;2.70;1.87;;;;;;;10.46;100.00;99194.75;31512782;28;20057;-80
2023/12/26 04:26:58;;;;;;;4.17;2.40;;;;;;;10.22;100.00;99218.78;31494421;28;20044;-80
2023/12/26 04:42:00;;;;;;;6.13;2.47;;;;;;;10.02;100.00;99248.06;31565758;28;20085;-81
2023/12/26 04:57:03;;;;;;;4.50;3.00;;;;;;;9.90;100.00;99234.09;31521180;28;20048;-82
2023/12/26 05:12:06;;;;;;;6.73;2.87;;;;;;;9.84;100.00;99246.66;31520469;28;20048;-82
2023/12/26 05:27:10;;;;;;;4.33;2.70;;;;;;;9.90;100.00;99284.84;31496916;28;20048;-82
2023/12/26 05:42:13;;;;;;;8.07;3.00;;;;;;;10.02;100.00;99337.53;31583539;28;20040;-82
2023/12/26 05:57:15;;;;;;;3.57;2.63;;;;;;;11.31;100.00;99397.50;31560427;28;20060;-83
2023/12/26 06:12:17;;;;;;;15.33;4.53;;;;;;;12.70;100.00;99464.00;31567524;28;20068;-81
2023/12/26 06:27:19;;;;;;;12.00;4.50;;;;;;;11.64;100.00;99501.94;31483510;28;20463;-81
2023/12/26 06:42:22;;;;;;;7.10;2.70;;;;;;;13.62;100.00;99521.06;31627083;28;20048;-81
2023/12/26 06:57:24;;;;;;;2.80;2.50;;;;;;;15.83;100.00;99561.00;31552420;28;20056;-83
2023/12/26 07:12:26;;;;;;;5.60;2.50;;;;;;;16.36;100.00;99573.97;31487460;28;20056;-83
2023/12/26 07:27:28;;;;;;;5.33;2.37;;;;;;;16.83;100.00;99613.44;31484604;28;20075;-83
2023/12/26 07:42:30;;;;;;;4.67;2.40;;;;;;;17.34;100.00;99643.19;31551243;28;20118;-74
2023/12/26 07:57:32;;;;;;;8.20;2.37;;;;;;;16.73;100.00;99667.59;31544833;28;20630;-78
2023/12/26 08:12:35;;;;;;;7.00;2.70;;;;;;;17.33;100.00;99671.84;31493841;28;20136;-76
2023/12/26 08:27:40;;;;;;;4.80;3.30;;;;;;;17.37;100.00;99675.91;31496620;28;20048;-78
2023/12/26 08:42:42;;;;;;;5.07;2.17;;;;;;;17.28;95.88;99678.75;31542116;28;20094;-76
2023/12/26 08:57:44;;;;;;;4.37;2.17;;;;;;;17.25;100.00;99707.13;31472216;28;20056;-84
2023/12/26 09:12:46;;;;;;;3.13;1.60;;;;;;;16.78;100.00;99696.31;31489189;28;20523;-85
2023/12/26 09:27:48;;;;;;;3.83;1.60;;;;;;;15.86;100.00;99718.81;31528318;28;20063;-82
2023/12/26 09:42:53;;;;;;;3.10;1.20;;;;;;;17.68;90.13;99715.84;31570105;28;20135;-81
2023/12/26 09:57:59;;;;;;;3.20;1.27;;;;;;;18.62;66.15;99730.13;31444109;28;20091;-82
2023/12/26 10:13:05;;;;;;;3.37;1.20;;;;;;;15.85;90.11;99725.50;31542237;28;20091;-88
2023/12/26 10:28:14;;;;;;;3.47;1.80;;;;;;;13.97;97.31;99758.91;31580452;28;20060;-77
2023/12/26 10:43:17;;;;;;;4.13;1.67;;;;;;;13.89;100.00;99782.25;31514334;28;20080;-82
2023/12/26 10:58:24;;;;;;;3.37;1.43;;;;;;;17.03;100.00;99756.09;31512477;28;20040;-82
2023/12/26 13:53:46;;;;;;;5.93;3.23;;;;;;;14.09;100.00;99895.75;31599428;28;20135;-84
2023/12/26 14:09:25;;;;;;;6.97;3.93;;;;;;;13.78;100.00;99901.91;31490743;28;20139;-87
2023/12/26 14:25:04;;;;;;;6.47;3.13;;;;;;;13.38;100.00;99909.19;31449259;28;20052;-85
2023/12/26 14:40:44;;;;;;;3.80;3.03;;;;;;;13.06;100.00;99913.72;31559515;28;20048;-87
2023/12/26 14:56:27;;;;;;;4.67;2.70;;;;;;;12.48;100.00;99894.19;31448237;28;20531;-91
2023/12/26 15:11:32;;;;;;;7.43;3.03;;;;;;;12.29;100.00;99865.94;31519668;28;20067;-83
2023/12/26 15:26:34;;;;;;;12.00;3.40;;;;;;;12.25;100.00;99854.44;31606991;28;20082;-81
2023/12/26 15:41:38;;;;;;;5.00;3.10;;;;;;;12.42;100.00;99864.00;31457646;28;20127;-90
2023/12/26 15:56:41;;;;;;;6.90;4.40;;;;;;;13.38;100.00;99854.66;31458083;28;20102;-76
2023/12/26 16:11:44;;;;;;;11.93;5.07;;;;;;;13.60;100.00;99852.69;31421128;28;20076;-80
2023/12/26 16:26:46;;;;;;;6.07;3.77;;;;;;;12.15;100.00;99833.75;31421015;28;20045;-79
2023/12/26 16:42:00;;;;;;;7.20;3.70;;;;;;;12.29;100.00;99827.84;31413467;28;20156;-80
2023/12/26 16:57:02;;;;;;;7.57;3.40;;;;;;;11.97;100.00;99811.75;31431496;28;20047;-79
2023/12/26 17:12:07;;;;;;;5.43;2.90;;;;;;;12.27;100.00;99811.22;31419027;28;20060;-76
2023/12/26 17:27:09;;;;;;;8.17;4.13;;;;;;;13.45;100.00;99805.34;31430626;28;20059;-79
2023/12/26 17:42:14;;;;;;;4.60;2.77;;;;;;;12.55;100.00;99755.84;31435227;28;20052;-83
2023/12/26 17:57:17;;;;;;;6.17;2.90;;;;;;;12.83;100.00;99756.09;31456832;28;20055;-83
2023/12/26 18:12:19;;;;;;;5.10;2.43;;;;;;;12.99;100.00;99743.03;31438882;28;20460;-78
2023/12/26 18:27:22;;;;;;;4.03;2.50;;;;;;;12.61;100.00;99705.06;31425824;28;20060;-76
2023/12/26 18:42:24;;;;;;;3.97;2.50;;;;;;;12.57;100.00;99688.09;31468717;28;20056;-76
2023/12/26 18:57:28;;;;;;;7.77;3.03;;;;;;;12.78;100.00;99634.06;31447975;28;20064;-78
2023/12/26 19:12:30;;;;;;;4.10;2.20;;;;;;;13.06;100.00;99649.38;31445221;28;20056;-77
2023/12/26 19:27:33;;;;;;;3.50;2.30;;;;;;;13.05;100.00;99642.41;31488130;28;20534;-77
2023/12/26 19:42:37;;;;;;;6.17;2.47;;;;;;;13.05;100.00;99636.97;31414033;28;20565;-74
2023/12/26 19:57:45;;;;;;;3.60;2.23;;;;;;;12.64;100.00;99641.56;31474325;28;20053;-85
2023/12/26 20:12:47;;;;;;;3.10;2.47;;;;;;;12.35;100.00;99629.38;31383516;28;20059;-85
2023/12/26 20:27:49;;;;;;;3.23;2.20;;;;;;;11.73;100.00;99612.75;31466026;28;20105;-85
2023/12/26 20:42:55;;;;;;;9.57;2.97;;;;;;;12.15;100.00;99588.84;31485039;28;20106;-86
2023/12/26 20:57:58;;;;;;;6.63;2.40;;;;;;;12.12;100.00;99590.50;31433289;28;20333;-86
2023/12/26 21:13:03;;;;;;;5.10;2.97;;;;;;;12.15;100.00;99583.41;31502980;28;20079;-82
2023/12/26 21:28:06;;;;;;;6.25;2.88;;;;;;;12.91;100.00;99585.75;31447192;28;20300;-86
2023/12/26 21:43:08;;;;;;;5.23;2.93;;;;;;;12.86;100.00;99576.19;31384786;28;20057;-82
2023/12/26 21:58:11;;;;;;;5.87;3.63;;;;;;;12.52;100.00;99574.31;31446298;28;20085;-84
2023/12/26 22:13:13;;;;;;;8.80;4.03;;;;;;;12.08;100.00;99549.03;31531593;28;20276;-82
2023/12/26 22:28:15;;;;;;;9.47;4.30;;;;;;;12.28;100.00;99544.03;31491240;28;20060;-81
2023/12/26 22:43:17;;;;;;;9.80;4.70;;;;;;;12.06;100.00;99528.91;31488958;28;20053;-81
2023/12/26 22:58:19;;;;;;;10.03;3.43;;;;;;;12.32;100.00;99527.59;31465761;28;20052;-83
2023/12/26 23:13:21;;;;;;;9.83;5.30;;;;;;;12.16;100.00;99530.50;31500184;28;20052;-81
2023/12/26 23:28:23;;;;;;;12.53;4.83;;;;;;;12.52;100.00;99529.97;31504948;28;20060;-82
2023/12/26 23:43:25;;;;;;;9.87;4.30;;;;;;;12.60;100.00;99534.72;31594579;28;20502;-81
2023/12/26 23:58:27;;;;;;;12.73;5.47;;;;;;;12.76;100.00;99554.78;31418027;28;20056;-81
